createdAt,value
2018-11-10T00:01:29.731Z,6.00
2018-11-10T00:03:57.964Z,6.00
2018-11-10T00:06:25.764Z,5.90
2018-11-10T00:08:53.448Z,6.00
2018-11-10T00:11:21.249Z,6.00
2018-11-10T00:13:48.943Z,5.90
2018-11-10T00:16:16.798Z,6.00
2018-11-10T00:18:44.445Z,5.90
2018-11-10T00:21:12.181Z,6.00
2018-11-10T00:23:39.906Z,6.00
2018-11-10T00:26:07.718Z,6.10
2018-11-10T00:28:35.526Z,6.10
2018-11-10T00:31:03.269Z,6.10
2018-11-10T00:33:31.067Z,6.20
2018-11-10T00:35:59.532Z,6.20
2018-11-10T00:38:27.316Z,6.20
2018-11-10T00:40:54.990Z,6.20
2018-11-10T00:43:23.779Z,6.20
2018-11-10T00:45:51.528Z,6.20
2018-11-10T00:48:19.421Z,6.20
2018-11-10T00:50:47.196Z,6.10
2018-11-10T00:53:14.904Z,6.10
2018-11-10T00:55:42.917Z,6.00
2018-11-10T00:58:10.611Z,6.00
2018-11-10T01:00:38.532Z,6.10
2018-11-10T01:03:06.479Z,6.10
2018-11-10T01:05:34.167Z,6.20
2018-11-10T01:08:01.933Z,6.20
2018-11-10T01:10:29.895Z,6.30
2018-11-10T01:12:57.522Z,6.30
2018-11-10T01:15:25.199Z,6.30
2018-11-10T01:17:52.891Z,6.30
2018-11-10T01:20:20.630Z,6.30
2018-11-10T01:22:48.433Z,6.20
2018-11-10T01:25:16.107Z,6.20
2018-11-10T01:27:43.811Z,6.20
2018-11-10T01:30:13.619Z,6.30
2018-11-10T01:32:42.029Z,6.30
2018-11-10T01:35:10.544Z,6.30
2018-11-10T01:37:38.485Z,6.30
2018-11-10T01:40:07.879Z,6.30
2018-11-10T01:42:37.756Z,6.30
2018-11-10T01:45:08.327Z,6.30
2018-11-10T01:47:36.135Z,6.30
2018-11-10T01:50:04.320Z,6.20
2018-11-10T01:52:32.032Z,6.10
2018-11-10T01:54:59.751Z,6.10
2018-11-10T01:57:27.512Z,6.20
2018-11-10T01:59:55.982Z,6.10
2018-11-10T02:02:24.939Z,6.20
2018-11-10T02:04:52.669Z,6.20
2018-11-10T02:07:20.371Z,6.20
2018-11-10T02:09:48.091Z,6.20
2018-11-10T02:12:15.751Z,6.20
2018-11-10T02:14:43.470Z,6.10
2018-11-10T02:17:11.123Z,6.10
2018-11-10T02:19:38.747Z,6.00
2018-11-10T02:22:06.389Z,6.00
2018-11-10T02:24:34.128Z,6.00
2018-11-10T02:27:01.898Z,6.00
2018-11-10T02:29:29.724Z,5.90
2018-11-10T02:31:57.472Z,5.90
2018-11-10T02:34:25.246Z,5.90
2018-11-10T02:36:52.969Z,5.90
2018-11-10T02:39:20.699Z,5.90
2018-11-10T02:41:48.431Z,5.90
2018-11-10T02:44:16.947Z,6.00
2018-11-10T02:46:45.359Z,6.10
2018-11-10T02:49:13.052Z,6.20
2018-11-10T02:51:40.784Z,6.30
2018-11-10T02:54:08.497Z,6.40
2018-11-10T02:56:36.218Z,6.50
2018-11-10T02:59:04.969Z,6.50
2018-11-10T03:01:33.352Z,6.60
2018-11-10T03:04:01.089Z,6.70
2018-11-10T03:06:31.723Z,6.70
2018-11-10T03:08:59.822Z,6.70
2018-11-10T03:11:27.529Z,6.70
2018-11-10T03:13:55.776Z,6.80
2018-11-10T03:16:23.525Z,6.80
2018-11-10T03:18:51.156Z,6.90
2018-11-10T03:21:18.823Z,7.00
2018-11-10T03:23:46.483Z,7.20
2018-11-10T03:26:14.149Z,7.20
2018-11-10T03:28:41.924Z,7.30
2018-11-10T03:31:09.564Z,7.30
2018-11-10T03:33:37.258Z,7.30
2018-11-10T03:36:04.987Z,7.40
2018-11-10T03:38:32.703Z,7.30
2018-11-10T03:41:00.431Z,7.30
2018-11-10T03:43:28.179Z,7.30
2018-11-10T03:45:55.954Z,7.20
2018-11-10T03:48:23.675Z,7.20
2018-11-10T03:50:51.308Z,7.10
2018-11-10T03:53:18.969Z,7.00
2018-11-10T03:55:46.704Z,6.90
2018-11-10T03:58:14.460Z,6.90
2018-11-10T04:00:42.195Z,6.90
2018-11-10T04:03:09.968Z,6.90
2018-11-10T04:05:37.720Z,6.80
2018-11-10T04:08:06.125Z,6.70
2018-11-10T04:10:33.898Z,6.70
2018-11-10T04:13:01.605Z,6.70
2018-11-10T04:15:29.419Z,6.70
2018-11-10T04:17:57.229Z,6.80
2018-11-10T04:20:24.960Z,6.80
2018-11-10T04:22:52.696Z,6.90
2018-11-10T04:25:20.460Z,6.90
2018-11-10T04:27:48.160Z,6.90
2018-11-10T04:30:15.853Z,6.90
2018-11-10T04:32:43.518Z,6.90
2018-11-10T04:35:11.218Z,6.90
2018-11-10T04:37:38.918Z,6.90
2018-11-10T04:40:07.491Z,6.90
2018-11-10T04:42:35.231Z,6.90
2018-11-10T04:45:03.045Z,6.90
2018-11-10T04:47:30.703Z,6.90
2018-11-10T04:49:59.698Z,6.90
2018-11-10T04:52:27.311Z,6.90
2018-11-10T04:54:54.992Z,6.90
2018-11-10T04:57:22.676Z,7.00
2018-11-10T04:59:50.480Z,7.00
2018-11-10T05:02:18.184Z,7.00
2018-11-10T05:04:45.854Z,7.10
2018-11-10T05:07:13.514Z,7.20
2018-11-10T05:09:41.164Z,7.20
2018-11-10T05:12:09.850Z,7.30
2018-11-10T05:14:37.563Z,7.30
2018-11-10T05:17:05.476Z,7.40
2018-11-10T05:19:33.182Z,7.40
2018-11-10T05:22:00.957Z,7.50
2018-11-10T05:24:28.719Z,7.50
2018-11-10T05:26:56.422Z,7.50
2018-11-10T05:29:24.078Z,7.50
2018-11-10T05:31:51.771Z,7.60
2018-11-10T05:34:19.532Z,7.60
2018-11-10T05:36:47.919Z,7.70
2018-11-10T05:39:15.588Z,7.80
2018-11-10T05:41:43.324Z,7.90
2018-11-10T05:44:10.989Z,7.90
2018-11-10T05:46:38.826Z,8.00
2018-11-10T05:49:06.660Z,8.00
2018-11-10T05:51:35.350Z,8.10
2018-11-10T05:54:03.046Z,8.10
2018-11-10T05:56:30.777Z,8.20
2018-11-10T05:58:58.612Z,8.20
2018-11-10T06:01:26.415Z,8.20
2018-11-10T06:03:54.284Z,8.30
2018-11-10T06:06:22.246Z,8.30
2018-11-10T06:08:49.947Z,8.30
2018-11-10T06:11:17.763Z,8.30
2018-11-10T06:13:45.827Z,8.40
2018-11-10T06:16:13.851Z,8.40
2018-11-10T06:18:41.807Z,8.50
2018-11-10T06:21:09.491Z,8.50
2018-11-10T06:23:37.289Z,8.50
2018-11-10T06:26:05.566Z,8.60
2018-11-10T06:28:33.252Z,8.60
2018-11-10T06:31:01.196Z,8.60
2018-11-10T06:33:28.893Z,8.60
2018-11-10T06:35:56.888Z,8.70
2018-11-10T06:38:24.633Z,8.70
2018-11-10T06:40:52.613Z,8.60
2018-11-10T06:43:20.450Z,8.60
2018-11-10T06:45:48.300Z,8.60
2018-11-10T06:48:16.100Z,8.60
2018-11-10T06:50:44.056Z,8.60
2018-11-10T06:53:11.841Z,8.70
2018-11-10T06:55:39.721Z,8.70
2018-11-10T06:58:07.492Z,8.70
2018-11-10T07:00:35.462Z,8.80
2018-11-10T07:03:03.239Z,8.80
2018-11-10T07:05:31.021Z,8.80
2018-11-10T07:07:58.789Z,8.90
2018-11-10T07:10:26.689Z,8.90
2018-11-10T07:12:54.361Z,9.00
2018-11-10T07:15:22.273Z,9.10
2018-11-10T07:17:49.976Z,9.20
2018-11-10T07:20:17.615Z,9.30
2018-11-10T07:22:45.328Z,9.30
2018-11-10T07:25:13.005Z,9.40
2018-11-10T07:27:40.706Z,9.40
2018-11-10T07:30:10.428Z,9.50
2018-11-10T07:32:38.190Z,9.50
2018-11-10T07:35:06.585Z,9.60
2018-11-10T07:37:34.475Z,9.60
2018-11-10T07:40:02.200Z,9.70
2018-11-10T07:42:29.896Z,9.80
2018-11-10T07:44:57.620Z,9.80
2018-11-10T07:47:25.412Z,10.00
2018-11-10T07:49:53.126Z,10.10
2018-11-10T07:52:20.834Z,10.20
2018-11-10T07:54:49.402Z,10.30
2018-11-10T07:57:17.111Z,10.50
2018-11-10T07:59:44.812Z,10.60
2018-11-10T08:02:12.488Z,10.70
2018-11-10T08:04:40.241Z,10.80
2018-11-10T08:07:07.908Z,10.90
2018-11-10T08:09:40.236Z,11.00
2018-11-10T08:12:07.910Z,11.10
2018-11-10T08:14:39.912Z,11.20
2018-11-10T08:17:07.611Z,11.30
2018-11-10T08:19:35.339Z,11.40
2018-11-10T08:22:03.138Z,11.50
2018-11-10T08:24:30.809Z,11.50
2018-11-10T08:26:58.501Z,11.60
2018-11-10T08:29:26.185Z,11.60
2018-11-10T08:31:53.901Z,11.70
2018-11-10T08:34:21.649Z,11.70
2018-11-10T08:36:49.377Z,11.80
2018-11-10T08:39:17.129Z,11.90
2018-11-10T08:41:44.827Z,11.90
2018-11-10T08:44:12.553Z,12.00
2018-11-10T08:46:40.239Z,12.00
2018-11-10T08:49:07.896Z,12.10
2018-11-10T08:51:35.647Z,12.10
2018-11-10T08:54:03.392Z,12.10
2018-11-10T08:56:31.149Z,12.10
2018-11-10T08:58:59.429Z,12.20
2018-11-10T09:01:27.146Z,12.30
2018-11-10T09:03:54.916Z,12.30
2018-11-10T09:06:22.726Z,12.40
2018-11-10T09:08:50.518Z,12.40
2018-11-10T09:11:18.244Z,12.40
2018-11-10T09:13:45.998Z,12.50
2018-11-10T09:16:14.880Z,12.50
2018-11-10T09:18:42.646Z,12.60
2018-11-10T09:21:10.456Z,12.60
2018-11-10T09:23:38.183Z,12.70
2018-11-10T09:26:05.912Z,12.80
2018-11-10T09:28:33.623Z,12.90
2018-11-10T09:31:01.403Z,13.00
2018-11-10T09:33:28.994Z,13.10
2018-11-10T09:35:56.655Z,13.10
2018-11-10T09:38:24.375Z,13.10
2018-11-10T09:40:52.048Z,13.20
2018-11-10T09:43:19.749Z,13.40
2018-11-10T09:45:47.467Z,13.50
2018-11-10T09:48:15.177Z,13.70
2018-11-10T09:50:42.928Z,14.00
2018-11-10T09:53:10.561Z,14.20
2018-11-10T09:55:38.250Z,14.40
2018-11-10T09:58:06.091Z,14.50
2018-11-10T10:00:33.848Z,14.90
2018-11-10T10:03:01.593Z,15.40
2018-11-10T10:05:29.304Z,16.00
2018-11-10T10:07:56.960Z,16.60
2018-11-10T10:10:24.647Z,17.10
2018-11-10T10:12:52.402Z,17.70
2018-11-10T10:15:20.065Z,18.40
2018-11-10T10:17:47.984Z,18.90
2018-11-10T10:20:16.979Z,19.60
2018-11-10T10:22:45.554Z,20.40
2018-11-10T10:25:14.851Z,21.10
2018-11-10T10:27:43.594Z,22.00
2018-11-10T10:30:16.609Z,23.60
2018-11-10T10:32:45.396Z,25.00
2018-11-10T10:35:14.246Z,26.60
2018-11-10T10:37:42.288Z,28.20
2018-11-10T10:40:11.603Z,28.70
2018-11-10T10:42:39.350Z,28.30
2018-11-10T10:45:09.259Z,28.60
2018-11-10T10:47:37.059Z,29.10
2018-11-10T10:50:05.896Z,29.40
2018-11-10T10:52:34.506Z,29.80
2018-11-10T10:55:10.591Z,29.70
2018-11-10T10:57:38.314Z,29.30
2018-11-10T11:00:10.260Z,29.00
2018-11-10T11:02:43.722Z,28.90
2018-11-10T11:05:14.243Z,29.40
2018-11-10T11:07:42.968Z,28.50
2018-11-10T11:10:10.676Z,28.10
2018-11-10T11:12:38.352Z,27.40
2018-11-10T11:15:06.439Z,27.30
2018-11-10T11:17:34.219Z,27.30
2018-11-10T11:20:01.896Z,26.00
2018-11-10T11:22:30.251Z,25.10
2018-11-10T11:24:57.911Z,25.00
2018-11-10T11:27:25.661Z,25.40
2018-11-10T11:29:53.510Z,25.90
2018-11-10T11:32:21.202Z,26.30
2018-11-10T11:34:48.878Z,26.20
2018-11-10T11:37:16.624Z,26.20
2018-11-10T11:39:44.343Z,26.40
2018-11-10T11:42:12.041Z,27.00
2018-11-10T11:44:39.822Z,27.10
2018-11-10T11:47:07.529Z,27.40
2018-11-10T11:49:35.248Z,27.80
2018-11-10T11:52:02.897Z,28.10
2018-11-10T11:54:30.617Z,28.70
2018-11-10T11:56:58.404Z,29.20
2018-11-10T11:59:26.151Z,29.40
2018-11-10T12:01:53.826Z,29.30
2018-11-10T12:04:21.558Z,29.40
2018-11-10T12:06:49.324Z,29.50
2018-11-10T12:09:17.090Z,29.10
2018-11-10T12:11:44.791Z,28.60
2018-11-10T12:14:12.464Z,27.40
2018-11-10T12:16:40.269Z,26.70
2018-11-10T12:19:07.861Z,26.10
2018-11-10T12:21:35.567Z,25.30
2018-11-10T12:24:03.931Z,24.60
2018-11-10T12:26:31.717Z,24.00
2018-11-10T12:28:59.452Z,23.60
2018-11-10T12:31:27.174Z,23.20
2018-11-10T12:33:54.898Z,22.90
2018-11-10T12:36:22.596Z,22.60
2018-11-10T12:38:50.396Z,22.30
2018-11-10T12:41:18.055Z,22.20
2018-11-10T12:43:45.784Z,21.90
2018-11-10T12:46:13.485Z,21.80
2018-11-10T12:48:41.196Z,21.90
2018-11-10T12:51:09.553Z,22.00
2018-11-10T12:53:37.191Z,22.10
2018-11-10T12:56:05.365Z,22.10
2018-11-10T12:58:33.701Z,22.00
2018-11-10T13:01:01.411Z,21.70
2018-11-10T13:06:39.608Z,21.30
2018-11-10T13:09:08.293Z,20.90
2018-11-10T13:11:36.427Z,20.70
2018-11-10T13:14:04.184Z,20.50
2018-11-10T13:16:31.942Z,20.30
2018-11-10T13:18:59.667Z,20.20
2018-11-10T13:21:27.512Z,20.20
2018-11-10T13:23:55.257Z,20.20
2018-11-10T13:26:23.082Z,20.10
2018-11-10T13:28:50.803Z,20.00
2018-11-10T13:31:18.691Z,19.90
2018-11-10T13:33:46.382Z,19.90
2018-11-10T13:36:14.127Z,19.80
2018-11-10T13:38:41.802Z,19.80
2018-11-10T13:41:09.564Z,19.80
2018-11-10T13:43:38.325Z,19.70
2018-11-10T13:46:06.036Z,19.60
2018-11-10T13:48:34.027Z,19.50
2018-11-10T13:51:02.315Z,19.40
2018-11-10T13:53:29.602Z,19.30
2018-11-10T13:55:57.449Z,19.20
2018-11-10T13:58:25.085Z,19.20
2018-11-10T14:00:52.795Z,19.20
2018-11-10T14:03:20.578Z,19.10
2018-11-10T14:05:48.268Z,19.10
2018-11-10T14:08:16.073Z,19.10
2018-11-10T14:10:43.943Z,19.10
2018-11-10T14:13:11.672Z,19.20
2018-11-10T14:15:39.459Z,19.20
2018-11-10T14:18:07.143Z,19.30
2018-11-10T14:20:34.896Z,19.40
2018-11-10T14:23:02.670Z,19.40
2018-11-10T14:25:30.467Z,19.30
2018-11-10T14:27:58.232Z,19.30
2018-11-10T14:30:25.912Z,19.30
2018-11-10T14:32:53.700Z,19.30
2018-11-10T14:35:21.446Z,19.20
2018-11-10T14:37:49.177Z,19.20
2018-11-10T14:40:17.571Z,19.10
2018-11-10T14:42:45.711Z,19.00
2018-11-10T14:45:14.829Z,18.90
2018-11-10T14:47:43.116Z,18.80
2018-11-10T14:50:11.788Z,18.70
2018-11-10T14:52:39.955Z,18.50
2018-11-10T14:55:10.233Z,18.40
2018-11-10T14:57:39.301Z,18.30
2018-11-10T15:00:12.421Z,18.20
2018-11-10T15:02:40.348Z,18.10
2018-11-10T15:05:09.042Z,18.10
2018-11-10T15:07:36.785Z,18.00
2018-11-10T15:10:06.582Z,17.90
2018-11-10T15:12:34.300Z,17.80
2018-11-10T15:15:03.011Z,17.70
2018-11-10T15:17:31.150Z,17.70
2018-11-10T15:19:58.900Z,17.60
2018-11-10T15:22:26.596Z,17.50
2018-11-10T15:24:54.306Z,17.40
2018-11-10T15:27:22.016Z,17.30
2018-11-10T15:29:49.733Z,17.30
2018-11-10T15:32:17.420Z,17.20
2018-11-10T15:34:45.233Z,17.10
2018-11-10T15:37:13.045Z,16.90
2018-11-10T15:39:40.726Z,16.80
2018-11-10T15:42:08.548Z,16.70
2018-11-10T15:44:37.027Z,16.50
2018-11-10T15:47:05.041Z,16.40
2018-11-10T15:49:32.894Z,16.30
2018-11-10T15:52:00.753Z,16.20
2018-11-10T15:54:28.460Z,16.10
2018-11-10T15:56:56.211Z,16.10
2018-11-10T15:59:23.865Z,16.00
2018-11-10T16:01:51.632Z,15.90
2018-11-10T16:04:19.616Z,15.80
2018-11-10T16:06:47.411Z,15.80
2018-11-10T16:09:15.270Z,15.70
2018-11-10T16:11:43.046Z,15.60
2018-11-10T16:14:10.784Z,15.50
2018-11-10T16:16:38.621Z,15.20
2018-11-10T16:19:07.000Z,15.00
2018-11-10T16:21:34.733Z,14.90
2018-11-10T16:24:02.436Z,14.80
2018-11-10T16:26:30.216Z,14.70
2018-11-10T16:28:58.134Z,14.70
2018-11-10T16:31:26.029Z,14.70
2018-11-10T16:33:54.084Z,14.70
2018-11-10T16:36:21.990Z,14.70
2018-11-10T16:38:50.022Z,14.60
2018-11-10T16:41:17.872Z,14.50
2018-11-10T16:43:45.619Z,14.50
2018-11-10T16:46:13.624Z,14.40
2018-11-10T16:48:41.876Z,14.30
2018-11-10T16:51:09.649Z,14.20
2018-11-10T16:53:37.363Z,14.10
2018-11-10T16:56:05.190Z,14.10
2018-11-10T16:58:33.597Z,14.10
2018-11-10T17:01:01.324Z,14.10
2018-11-10T17:03:29.102Z,14.10
2018-11-10T17:05:56.853Z,14.10
2018-11-10T17:08:24.677Z,14.10
2018-11-10T17:10:53.472Z,14.10
2018-11-10T17:13:21.397Z,14.10
2018-11-10T17:15:49.240Z,14.10
2018-11-10T17:18:18.254Z,14.10
2018-11-10T17:20:45.973Z,14.10
2018-11-10T17:23:13.781Z,13.90
2018-11-10T17:25:41.576Z,13.90
2018-11-10T17:28:09.450Z,13.90
2018-11-10T17:30:37.099Z,13.90
2018-11-10T17:33:05.052Z,13.90
2018-11-10T17:35:32.965Z,13.90
2018-11-10T17:38:01.837Z,13.90
2018-11-10T17:40:29.459Z,14.00
2018-11-10T17:42:57.444Z,14.00
2018-11-10T17:45:25.191Z,14.00
2018-11-10T17:47:52.851Z,13.90
2018-11-10T17:50:20.639Z,13.90
2018-11-10T17:52:48.473Z,13.90
2018-11-10T17:55:16.990Z,13.80
2018-11-10T17:57:45.327Z,13.90
2018-11-10T18:00:13.438Z,13.80
2018-11-10T18:02:41.615Z,13.80
2018-11-10T18:05:11.492Z,13.80
2018-11-10T18:07:39.188Z,13.80
2018-11-10T18:10:10.040Z,13.80
2018-11-10T18:12:37.746Z,13.80
2018-11-10T18:15:07.115Z,13.80
2018-11-10T18:17:34.912Z,13.70
2018-11-10T18:20:03.163Z,13.60
2018-11-10T18:22:30.948Z,13.50
2018-11-10T18:24:58.840Z,13.30
2018-11-10T18:27:26.632Z,13.20
2018-11-10T18:29:54.687Z,13.10
2018-11-10T18:32:22.654Z,13.10
2018-11-10T18:34:50.402Z,13.10
2018-11-10T18:37:18.153Z,13.00
2018-11-10T18:39:46.778Z,13.10
2018-11-10T18:42:14.435Z,13.10
2018-11-10T18:44:42.546Z,13.10
2018-11-10T18:47:10.374Z,13.20
2018-11-10T18:49:38.483Z,13.20
2018-11-10T18:55:28.063Z,13.30
2018-11-10T18:57:56.047Z,13.20
2018-11-10T19:00:28.438Z,13.20
2018-11-10T19:02:56.325Z,13.00
2018-11-10T19:05:24.299Z,13.00
2018-11-10T19:07:53.601Z,12.90
2018-11-10T19:10:30.156Z,12.80
2018-11-10T19:12:58.125Z,12.70
2018-11-10T19:15:25.973Z,12.60
2018-11-10T19:17:53.947Z,12.50
2018-11-10T19:20:21.860Z,12.50
2018-11-10T19:22:50.314Z,12.50
2018-11-10T19:25:18.350Z,12.40
2018-11-10T19:27:46.290Z,12.40
2018-11-10T19:30:16.598Z,12.40
2018-11-10T19:32:46.089Z,12.40
2018-11-10T19:35:36.099Z,12.40
2018-11-10T19:38:27.098Z,12.50
2018-11-10T19:40:55.621Z,12.50
2018-11-10T19:43:23.428Z,12.50
2018-11-10T19:45:51.239Z,12.60
2018-11-10T19:48:19.001Z,12.60
2018-11-10T19:50:46.915Z,12.60
2018-11-10T19:53:14.700Z,12.60
2018-11-10T19:55:42.392Z,12.70
2018-11-10T19:58:10.207Z,12.60
2018-11-10T20:00:38.004Z,12.50
2018-11-10T20:03:05.909Z,12.50
2018-11-10T20:05:33.872Z,12.40
2018-11-10T20:08:03.528Z,12.40
2018-11-10T20:10:31.377Z,12.40
2018-11-10T20:12:59.257Z,12.40
2018-11-10T20:15:26.974Z,12.50
2018-11-10T20:17:55.026Z,12.50
2018-11-10T20:20:23.552Z,12.60
2018-11-10T20:22:51.337Z,12.60
2018-11-10T20:25:19.453Z,12.70
2018-11-10T20:27:47.912Z,12.70
2018-11-10T20:30:17.436Z,12.70
2018-11-10T20:32:45.303Z,12.80
2018-11-10T20:35:13.773Z,12.70
2018-11-10T20:37:42.259Z,12.80
2018-11-10T20:40:11.885Z,12.80
2018-11-10T20:42:39.935Z,12.70
2018-11-10T20:45:10.315Z,12.70
2018-11-10T20:47:38.816Z,12.50
2018-11-10T20:50:06.608Z,12.50
2018-11-10T20:52:35.370Z,12.50
2018-11-10T20:55:05.706Z,12.50
2018-11-10T20:57:33.998Z,12.50
2018-11-10T21:00:03.395Z,12.50
2018-11-10T21:02:32.393Z,12.60
2018-11-10T21:05:00.197Z,12.60
2018-11-10T21:07:28.028Z,12.60
2018-11-10T21:09:57.277Z,12.60
2018-11-10T21:12:25.330Z,12.60
2018-11-10T21:14:53.112Z,12.60
2018-11-10T21:17:20.885Z,12.60
2018-11-10T21:19:48.764Z,12.50
2018-11-10T21:22:16.570Z,12.40
2018-11-10T21:24:44.279Z,12.40
2018-11-10T21:27:12.625Z,12.30
2018-11-10T21:29:40.445Z,12.30
2018-11-10T21:32:08.669Z,12.20
2018-11-10T21:34:36.708Z,12.20
2018-11-10T21:37:04.970Z,12.10
2018-11-10T21:39:32.900Z,12.00
2018-11-10T21:42:00.804Z,12.10
2018-11-10T21:44:28.612Z,12.10
2018-11-10T21:46:56.637Z,12.00
2018-11-10T21:49:24.788Z,12.10
2018-11-10T21:51:52.705Z,12.00
2018-11-10T21:54:20.571Z,12.10
2018-11-10T21:56:48.260Z,12.10
2018-11-10T21:59:16.111Z,12.10
2018-11-10T22:01:44.090Z,12.10
2018-11-10T22:04:12.894Z,12.10
2018-11-10T22:06:40.599Z,12.10
2018-11-10T22:09:10.311Z,12.10
2018-11-10T22:11:38.384Z,12.10
2018-11-10T22:14:06.240Z,12.10
2018-11-10T22:16:34.037Z,12.10
2018-11-10T22:19:02.633Z,12.10
2018-11-10T22:21:30.485Z,12.10
2018-11-10T22:23:58.229Z,12.10
2018-11-10T22:26:27.326Z,12.10
2018-11-10T22:28:55.412Z,12.10
2018-11-10T22:31:23.293Z,12.00
2018-11-10T22:33:51.436Z,12.00
2018-11-10T22:36:19.527Z,12.00
2018-11-10T22:38:47.480Z,11.90
2018-11-10T22:41:15.262Z,11.90
2018-11-10T22:43:43.767Z,11.90
2018-11-10T22:46:11.442Z,11.90
2018-11-10T22:48:39.904Z,11.90
2018-11-10T22:51:09.208Z,11.90
2018-11-10T22:53:37.848Z,11.90
2018-11-10T22:56:05.615Z,11.80
2018-11-10T22:58:33.426Z,11.80
2018-11-10T23:01:06.192Z,11.80
2018-11-10T23:03:34.518Z,11.80
2018-11-10T23:06:02.153Z,11.80
2018-11-10T23:08:30.005Z,11.80
2018-11-10T23:10:57.945Z,11.80
2018-11-10T23:13:26.606Z,11.70
2018-11-10T23:15:57.356Z,11.60
2018-11-10T23:18:25.152Z,11.60
2018-11-10T23:20:53.772Z,11.60
2018-11-10T23:23:21.570Z,11.60
2018-11-10T23:25:49.260Z,11.60
2018-11-10T23:28:17.047Z,11.50
2018-11-10T23:30:44.790Z,11.50
2018-11-10T23:33:12.590Z,11.40
2018-11-10T23:35:40.895Z,11.40
2018-11-10T23:38:09.100Z,11.30
2018-11-10T23:40:37.820Z,11.20
2018-11-10T23:43:05.728Z,11.20
2018-11-10T23:45:33.604Z,11.20
2018-11-10T23:48:01.373Z,11.30
2018-11-10T23:50:29.099Z,11.30
2018-11-10T23:52:56.835Z,11.30
2018-11-10T23:55:24.596Z,11.20
2018-11-10T23:57:52.318Z,11.20
